This is the latest recevied weather packets stored in our database for station/object W4MSI. If no packets are shown the sender has not sent any weather packets the latest 10 day(s).
| Time | Temp. | Humidity | Pressure | Rain* | Wind** | Luminosity | Snow |
|---|---|---|---|---|---|---|---|
| 1778161956 | 13.33° C | 61% | 1016.4 hPa | 0 mm | - | 580 W/m² | - |
| 1778161652 | 12.78° C | 64% | 1016.3 hPa | 0 mm | - | 575 W/m² | - |
| 1778161348 | 12.78° C | 62% | 1016.4 hPa | 0 mm | - | 593 W/m² | - |
| 1778161044 | 12.78° C | 65% | 1016.3 hPa | 0 mm | - | 591 W/m² | - |
| 1778160741 | 12.78° C | 69% | 1016.2 hPa | 0 mm | - | 590 W/m² | - |
| 1778160439 | 12.22° C | 68% | 1016.1 hPa | 0 mm | - | 604 W/m² | - |
| 1778160135 | 12.78° C | 67% | 1016.1 hPa | 0 mm | - | 490 W/m² | - |
| 1778159832 | 12.78° C | 67% | 1016.1 hPa | 0 mm | - | 525 W/m² | - |
| 1778159530 | 12.22° C | 66% | 1016.3 hPa | 0 mm | - | 359 W/m² | - |
| 1778159226 | 12.22° C | 70% | 1016.1 hPa | 0 mm | - | 277 W/m² | - |
| 1778158924 | 11.67° C | 73% | 1015.9 hPa | 0 mm | - | 193 W/m² | - |
| 1778158622 | 11.67° C | 73% | 1016 hPa | 0 mm | - | 154 W/m² | - |
| 1778158320 | 11.11° C | 74% | 1015.9 hPa | 0 mm | - | 130 W/m² | - |
| 1778158016 | 11.11° C | 76% | 1015.7 hPa | 0 mm | - | 120 W/m² | - |
| 1778157713 | 10.56° C | 76% | 1015.6 hPa | 0 mm | - | 105 W/m² | - |
| 1778157412 | 10.56° C | 76% | 1015.9 hPa | 0 mm | - | 92 W/m² | - |
| 1778157108 | 10.56° C | 77% | 1015.8 hPa | 0 mm | - | 87 W/m² | - |
| 1778156803 | 10.56° C | 81% | 1015.9 hPa | 0 mm | - | 79 W/m² | - |
| 1778156499 | 10.56° C | 82% | 1016 hPa | 0 mm | - | 72 W/m² | - |
| 1778156195 | 10.56° C | 83% | 1016 hPa | 0 mm | - | 69 W/m² | - |
| 1778155892 | 10° C | 87% | 1015.9 hPa | 0 mm | - | 63 W/m² | - |
| 1778155588 | 9.44° C | 89% | 1015.8 hPa | 0 mm | - | 56 W/m² | - |
| 1778155285 | 9.44° C | 89% | 1015.8 hPa | 0 mm | - | 55 W/m² | - |
| 1778154981 | 8.89° C | 91% | 1015.7 hPa | 0 mm | - | 51 W/m² | - |
| 1778154677 | 8.89° C | 93% | 1015.7 hPa | 0 mm | - | 45 W/m² | - |
* Rain latest hour (hover to see other rain measurements)
** Current wind speed in m/s (hover to see current wind gust speed)